Aurora, Colorado
Current Conditions -  °F | °C
As of 8:58 PM on Saturday 25 Oct 2014 (Local Time) from KBKF Reporting Station
Clear Clear  
Wind Chill: 57°   Ceiling: Unl
Heat Index: 57°   Visibility: 10mi
Dew Point: 26°   Wind: 10mph
Humidity: 30%   Direction: 190°S
Pressure: 30.05"   Gusts: NA
Location:  39.69°N, 104.86°W
Report Text: KBKF 260258Z 19009KT 10SM CLR 14/M04 A3005 RMK AO2A SLP126 T01401036 56005
Loading
Personal Weather Stations






























Interactive Weather Map
Tropical Storm Tracking
New forecast layout! Learn more

10-Day Weather Forecast

Advertisements
Track Severe Weather on mobile